createdAt,value
2023-05-11T00:00:29.099Z,12.18
2023-05-11T00:02:56.692Z,13.15
2023-05-11T00:05:23.881Z,12.07
2023-05-11T00:07:51.238Z,12.38
2023-05-11T00:10:18.638Z,12.55
2023-05-11T00:12:46.136Z,13.52
2023-05-11T00:15:13.237Z,13.73
2023-05-11T00:17:40.262Z,13.90
2023-05-11T00:20:08.050Z,14.38
2023-05-11T00:22:35.111Z,14.05
2023-05-11T00:25:02.459Z,13.85
2023-05-11T00:27:29.641Z,14.52
2023-05-11T00:29:57.055Z,12.93
2023-05-11T00:32:24.330Z,11.82
2023-05-11T00:34:51.692Z,12.52
2023-05-11T00:37:18.973Z,13.57
2023-05-11T00:39:46.057Z,13.25
2023-05-11T00:42:13.118Z,14.00
2023-05-11T00:44:40.219Z,14.93
2023-05-11T00:47:07.955Z,15.38
2023-05-11T00:49:35.329Z,15.95
2023-05-11T00:52:03.200Z,16.00
2023-05-11T00:54:31.722Z,16.30
2023-05-11T00:56:58.767Z,15.52
2023-05-11T00:59:25.922Z,16.10
2023-05-11T01:01:53.265Z,17.23
2023-05-11T01:04:20.955Z,16.92
2023-05-11T01:06:52.161Z,16.77
2023-05-11T01:09:59.057Z,15.70
2023-05-11T01:12:40.815Z,17.05
2023-05-11T01:15:16.925Z,15.95
2023-05-11T01:17:45.800Z,13.65
2023-05-11T01:20:21.695Z,14.00
2023-05-11T01:22:56.708Z,13.82
2023-05-11T01:25:44.966Z,13.20
2023-05-11T01:28:32.577Z,13.80
2023-05-11T01:31:10.146Z,13.65
2023-05-11T01:33:46.386Z,14.73
2023-05-11T01:36:14.863Z,14.18
2023-05-11T01:38:47.898Z,13.80
2023-05-11T01:41:19.101Z,14.52
2023-05-11T01:43:53.004Z,13.95
2023-05-11T01:46:25.196Z,14.60
2023-05-11T01:48:56.122Z,14.32
2023-05-11T01:51:28.146Z,14.10
2023-05-11T01:53:57.002Z,14.43
2023-05-11T01:56:27.085Z,14.38
2023-05-11T01:58:56.782Z,15.40
2023-05-11T02:01:24.984Z,13.50
2023-05-11T02:03:53.712Z,14.15
2023-05-11T02:06:23.981Z,13.98
2023-05-11T02:08:53.153Z,14.35
2023-05-11T02:11:24.290Z,14.20
2023-05-11T02:13:52.560Z,14.43
2023-05-11T02:16:21.176Z,13.52
2023-05-11T02:18:49.202Z,13.90
2023-05-11T02:21:17.709Z,13.00
2023-05-11T02:23:47.007Z,12.43
2023-05-11T02:26:16.816Z,11.45
2023-05-11T02:28:44.135Z,10.98
2023-05-11T02:31:17.665Z,10.80
2023-05-11T02:33:50.755Z,10.85
2023-05-11T02:38:49.137Z,9.50
2023-05-11T02:41:21.740Z,9.48
2023-05-11T02:43:54.304Z,9.30
2023-05-11T02:46:34.533Z,8.80
2023-05-11T02:49:07.206Z,9.18
2023-05-11T02:51:37.854Z,9.07
2023-05-11T02:54:10.746Z,8.82
2023-05-11T02:56:42.116Z,8.77
2023-05-11T02:59:10.638Z,9.45
2023-05-11T03:01:39.838Z,9.30
2023-05-11T03:04:07.541Z,9.43
2023-05-11T03:06:35.838Z,9.05
2023-05-11T03:09:08.500Z,8.20
2023-05-11T03:11:41.805Z,7.88
2023-05-11T03:14:09.405Z,7.60
2023-05-11T03:16:38.285Z,6.72
2023-05-11T03:19:08.482Z,6.15
2023-05-11T03:21:38.695Z,6.35
2023-05-11T03:24:10.627Z,6.47
2023-05-11T03:26:39.297Z,5.32
2023-05-11T03:29:08.930Z,4.97
2023-05-11T03:31:36.034Z,4.78
2023-05-11T03:34:03.525Z,5.07
2023-05-11T03:36:36.537Z,4.93
2023-05-11T03:39:04.687Z,5.22
2023-05-11T03:41:35.498Z,4.70
2023-05-11T03:44:06.027Z,4.50
2023-05-11T03:46:38.146Z,5.22
2023-05-11T03:49:09.021Z,4.82
2023-05-11T03:51:37.638Z,4.75
2023-05-11T03:54:06.779Z,5.28
2023-05-11T03:56:37.217Z,4.47
2023-05-11T03:59:04.823Z,4.93
2023-05-11T04:01:33.056Z,5.43
2023-05-11T04:04:00.505Z,5.03
2023-05-11T04:06:28.554Z,4.55
2023-05-11T04:09:05.704Z,5.03
2023-05-11T04:11:37.128Z,4.63
2023-05-11T04:14:04.689Z,4.53
2023-05-11T04:16:31.847Z,4.68
2023-05-11T04:18:59.167Z,4.82
2023-05-11T04:21:26.290Z,4.97
2023-05-11T04:23:53.592Z,4.90
2023-05-11T04:26:21.829Z,4.88
2023-05-11T04:28:49.241Z,4.97
2023-05-11T04:31:16.655Z,4.32
2023-05-11T04:33:44.116Z,4.93
2023-05-11T04:36:12.551Z,4.82
2023-05-11T04:38:39.765Z,4.93
2023-05-11T04:41:08.780Z,4.78
2023-05-11T04:43:36.960Z,4.80
2023-05-11T04:46:05.328Z,4.70
2023-05-11T04:48:33.062Z,4.82
2023-05-11T04:51:03.952Z,5.00
2023-05-11T04:53:32.546Z,4.85
2023-05-11T04:55:59.598Z,4.93
2023-05-11T04:58:27.155Z,4.93
2023-05-11T05:00:54.282Z,4.70
2023-05-11T05:03:21.458Z,4.63
2023-05-11T05:05:49.809Z,4.80
2023-05-11T05:08:18.810Z,4.47
2023-05-11T05:10:48.533Z,5.15
2023-05-11T05:13:17.008Z,4.95
2023-05-11T05:15:44.350Z,4.82
2023-05-11T05:18:12.569Z,4.28
2023-05-11T05:20:39.925Z,4.95
2023-05-11T05:23:07.233Z,4.90
2023-05-11T05:25:34.566Z,4.60
2023-05-11T05:28:01.849Z,4.70
2023-05-11T05:30:29.412Z,4.88
2023-05-11T05:32:56.505Z,4.85
2023-05-11T05:35:25.452Z,4.70
2023-05-11T05:37:53.411Z,4.63
2023-05-11T05:40:21.454Z,4.88
2023-05-11T05:42:52.937Z,4.78
2023-05-11T05:45:22.430Z,4.38
2023-05-11T05:47:51.847Z,5.00
2023-05-11T05:50:20.562Z,5.20
2023-05-11T05:52:47.864Z,4.90
2023-05-11T05:55:15.450Z,5.30
2023-05-11T05:57:44.520Z,4.60
2023-05-11T06:00:12.217Z,4.78
2023-05-11T06:02:40.421Z,4.97
2023-05-11T06:05:11.445Z,4.85
2023-05-11T06:07:39.008Z,4.28
2023-05-11T06:10:06.751Z,5.10
2023-05-11T06:12:34.153Z,4.97
2023-05-11T06:15:02.101Z,4.72
2023-05-11T06:17:31.295Z,5.00
2023-05-11T06:19:58.534Z,5.18
2023-05-11T06:22:28.568Z,5.53
2023-05-11T06:24:55.926Z,4.95
2023-05-11T06:27:23.041Z,5.47
2023-05-11T06:29:54.843Z,5.43
2023-05-11T06:32:22.530Z,5.57
2023-05-11T06:34:49.778Z,5.20
2023-05-11T06:37:20.813Z,4.97
2023-05-11T06:39:50.616Z,5.28
2023-05-11T06:42:17.788Z,4.53
2023-05-11T06:44:45.093Z,4.90
2023-05-11T06:47:12.190Z,4.82
2023-05-11T06:49:39.493Z,5.30
2023-05-11T06:52:06.943Z,5.47
2023-05-11T06:54:34.871Z,5.25
2023-05-11T06:57:03.904Z,5.05
2023-05-11T06:59:31.037Z,5.13
2023-05-11T07:01:58.429Z,5.35
2023-05-11T07:04:25.966Z,6.20
2023-05-11T07:06:53.144Z,5.38
2023-05-11T07:09:20.558Z,5.45
2023-05-11T07:11:47.770Z,5.57
2023-05-11T07:14:14.796Z,5.70
2023-05-11T07:16:42.261Z,5.78
2023-05-11T07:19:10.069Z,6.07
2023-05-11T07:21:37.301Z,5.50
2023-05-11T07:24:04.731Z,5.68
2023-05-11T07:26:32.125Z,6.30
2023-05-11T07:28:59.255Z,5.80
2023-05-11T07:31:26.470Z,5.78
2023-05-11T07:33:53.799Z,6.30
2023-05-11T07:36:21.131Z,6.40
2023-05-11T07:38:49.577Z,5.85
2023-05-11T07:41:18.168Z,6.38
2023-05-11T07:43:45.610Z,6.35
2023-05-11T07:46:12.688Z,6.90
2023-05-11T07:48:39.911Z,6.57
2023-05-11T07:51:07.734Z,6.70
2023-05-11T07:53:35.634Z,6.68
2023-05-11T07:56:03.992Z,6.82
2023-05-11T07:58:32.725Z,7.88
2023-05-11T08:00:59.967Z,7.00
2023-05-11T08:03:27.236Z,6.88
2023-05-11T08:05:54.563Z,7.03
2023-05-11T08:08:21.829Z,7.15
2023-05-11T08:10:49.111Z,7.15
2023-05-11T08:13:17.115Z,6.97
2023-05-11T08:15:44.696Z,6.70
2023-05-11T08:18:11.982Z,7.10
2023-05-11T08:20:42.123Z,6.85
2023-05-11T08:23:10.908Z,6.65
2023-05-11T08:25:37.927Z,6.85
2023-05-11T08:28:05.243Z,6.45
2023-05-11T08:30:32.310Z,7.25
2023-05-11T08:32:59.749Z,7.53
2023-05-11T08:35:27.443Z,7.65
2023-05-11T08:37:54.554Z,8.10
2023-05-11T08:40:23.876Z,8.45
2023-05-11T08:42:55.678Z,7.25
2023-05-11T08:45:23.871Z,7.20
2023-05-11T08:47:51.504Z,7.50
2023-05-11T08:50:18.965Z,7.55
2023-05-11T08:52:46.509Z,7.50
2023-05-11T08:55:14.170Z,6.97
2023-05-11T08:57:44.710Z,7.60
2023-05-11T09:00:13.344Z,7.32
2023-05-11T09:02:41.754Z,8.25
2023-05-11T09:05:10.229Z,7.50
2023-05-11T09:07:42.180Z,7.55
2023-05-11T09:10:11.571Z,7.85
2023-05-11T09:12:41.012Z,7.93
2023-05-11T09:15:08.829Z,7.53
2023-05-11T09:17:36.223Z,7.97
2023-05-11T09:20:06.769Z,7.53
2023-05-11T09:22:36.707Z,8.07
2023-05-11T09:25:05.101Z,7.90
2023-05-11T09:27:32.468Z,7.88
2023-05-11T09:32:51.399Z,7.63
2023-05-11T09:35:22.500Z,7.78
2023-05-11T09:38:07.940Z,8.10
2023-05-11T09:40:50.322Z,8.05
2023-05-11T09:43:23.104Z,8.70
2023-05-11T09:45:52.155Z,8.77
2023-05-11T09:48:20.340Z,7.63
2023-05-11T09:50:49.118Z,7.90
2023-05-11T09:53:17.016Z,8.30
2023-05-11T09:55:53.373Z,7.38
2023-05-11T09:58:20.870Z,8.13
2023-05-11T10:00:51.359Z,7.72
2023-05-11T10:03:18.967Z,7.95
2023-05-11T10:06:02.079Z,8.50
2023-05-11T10:08:31.184Z,8.52
2023-05-11T10:10:58.455Z,8.55
2023-05-11T10:13:27.162Z,8.70
2023-05-11T10:15:56.043Z,7.68
2023-05-11T10:18:23.493Z,8.80
2023-05-11T10:20:51.364Z,7.80
2023-05-11T10:23:18.969Z,8.18
2023-05-11T10:25:46.313Z,8.38
2023-05-11T10:28:13.612Z,7.43
2023-05-11T10:30:41.794Z,8.32
2023-05-11T10:33:09.714Z,8.43
2023-05-11T10:35:38.746Z,9.20
2023-05-11T10:38:08.236Z,8.43
2023-05-11T10:40:42.068Z,8.18
2023-05-11T10:43:37.681Z,8.50
2023-05-11T10:46:13.822Z,8.60
2023-05-11T10:49:04.211Z,8.27
2023-05-11T10:51:59.036Z,8.23
2023-05-11T10:54:46.810Z,8.93
2023-05-11T10:57:27.705Z,7.85
2023-05-11T11:00:18.283Z,8.43
2023-05-11T11:02:45.730Z,8.55
2023-05-11T11:05:17.375Z,8.43
2023-05-11T11:08:04.117Z,8.68
2023-05-11T11:10:34.986Z,8.30
2023-05-11T11:13:11.302Z,8.25
2023-05-11T11:15:55.108Z,8.45
2023-05-11T11:18:22.591Z,8.15
2023-05-11T11:20:52.955Z,8.73
2023-05-11T11:23:39.991Z,8.18
2023-05-11T11:26:08.692Z,8.45
2023-05-11T11:29:00.794Z,7.25
2023-05-11T11:31:31.779Z,8.35
2023-05-11T11:34:20.007Z,8.50
2023-05-11T11:37:04.019Z,7.78
2023-05-11T11:39:53.615Z,8.50
2023-05-11T11:42:39.668Z,8.43
2023-05-11T11:45:31.197Z,7.47
2023-05-11T11:48:13.343Z,7.53
2023-05-11T11:50:42.667Z,8.02
2023-05-11T11:53:11.771Z,8.60
2023-05-11T11:55:54.656Z,7.82
2023-05-11T11:58:41.690Z,7.80
2023-05-11T12:01:12.780Z,8.48
2023-05-11T12:03:41.859Z,8.75
2023-05-11T12:06:10.974Z,8.90
2023-05-11T12:08:39.481Z,8.68
2023-05-11T12:11:07.512Z,8.85
2023-05-11T12:13:35.643Z,10.35
2023-05-11T12:16:12.521Z,9.90
2023-05-11T12:18:40.762Z,9.50
2023-05-11T12:21:19.287Z,9.52
2023-05-11T12:24:06.438Z,9.60
2023-05-11T12:26:35.271Z,10.00
2023-05-11T12:29:18.579Z,9.80
2023-05-11T12:31:46.922Z,10.25
2023-05-11T12:34:16.394Z,9.15
2023-05-11T12:36:45.377Z,10.77
2023-05-11T12:39:20.208Z,10.05
2023-05-11T12:41:49.703Z,10.60
2023-05-11T12:44:17.937Z,10.63
2023-05-11T12:46:47.239Z,10.13
2023-05-11T12:49:24.705Z,11.00
2023-05-11T12:52:06.117Z,12.32
2023-05-11T12:54:38.273Z,10.10
2023-05-11T12:57:07.809Z,10.60
2023-05-11T12:59:40.737Z,10.23
2023-05-11T13:02:09.790Z,10.68
2023-05-11T13:04:38.806Z,10.55
2023-05-11T13:07:06.087Z,10.45
2023-05-11T13:09:33.625Z,10.70
2023-05-11T13:12:21.261Z,11.93
2023-05-11T13:14:51.119Z,11.63
2023-05-11T13:17:36.023Z,11.20
2023-05-11T13:22:51.817Z,11.18
2023-05-11T13:25:21.447Z,11.23
2023-05-11T13:27:48.752Z,11.27
2023-05-11T13:30:15.997Z,10.65
2023-05-11T13:32:43.156Z,10.65
2023-05-11T13:35:10.651Z,10.73
2023-05-11T13:37:37.810Z,10.48
2023-05-11T13:40:06.670Z,10.82
2023-05-11T13:42:33.876Z,11.88
2023-05-11T13:45:00.936Z,10.75
2023-05-11T13:47:27.972Z,11.73
2023-05-11T13:49:55.236Z,14.05
2023-05-11T13:52:22.504Z,13.82
2023-05-11T13:54:49.643Z,13.13
2023-05-11T13:57:16.869Z,11.52
2023-05-11T13:59:44.021Z,11.32
2023-05-11T14:02:11.726Z,10.27
2023-05-11T14:04:40.448Z,10.18
2023-05-11T14:07:07.757Z,9.93
2023-05-11T14:09:34.883Z,10.63
2023-05-11T14:12:02.001Z,10.48
2023-05-11T14:14:29.311Z,10.82
2023-05-11T14:16:57.070Z,9.90
2023-05-11T14:19:24.199Z,10.32
2023-05-11T14:21:51.348Z,10.50
2023-05-11T14:24:18.484Z,10.68
2023-05-11T14:26:45.549Z,10.10
2023-05-11T14:29:12.671Z,10.93
2023-05-11T14:31:40.309Z,11.18
2023-05-11T14:34:07.422Z,10.10
2023-05-11T14:36:34.610Z,10.93
2023-05-11T14:39:01.761Z,11.20
2023-05-11T14:41:28.805Z,10.85
2023-05-11T14:43:56.263Z,10.40
2023-05-11T14:46:26.707Z,10.43
2023-05-11T14:48:54.203Z,10.77
2023-05-11T14:51:21.256Z,11.05
2023-05-11T14:53:48.372Z,10.70
2023-05-11T14:56:15.421Z,10.10
2023-05-11T14:58:42.561Z,11.13
2023-05-11T15:01:09.756Z,11.35
2023-05-11T15:03:37.386Z,10.98
2023-05-11T15:06:04.750Z,9.95
2023-05-11T15:08:32.596Z,10.20
2023-05-11T15:10:59.716Z,11.90
2023-05-11T15:13:27.072Z,10.80
2023-05-11T15:15:54.503Z,11.25
2023-05-11T15:18:21.905Z,11.63
2023-05-11T15:20:49.111Z,12.15
2023-05-11T15:23:17.224Z,11.25
2023-05-11T15:25:45.083Z,11.00
2023-05-11T15:28:12.814Z,11.60
2023-05-11T15:30:41.529Z,12.07
2023-05-11T15:33:10.335Z,11.98
2023-05-11T15:35:38.181Z,12.90
2023-05-11T15:38:06.336Z,11.48
2023-05-11T15:40:33.529Z,12.40
2023-05-11T15:43:00.893Z,12.02
2023-05-11T15:45:29.018Z,12.05
2023-05-11T15:47:56.276Z,12.25
2023-05-11T15:50:23.614Z,11.55
2023-05-11T15:52:50.747Z,12.10
2023-05-11T15:55:17.982Z,11.50
2023-05-11T15:57:45.059Z,11.27
2023-05-11T16:00:12.844Z,11.13
2023-05-11T16:02:40.142Z,10.82
2023-05-11T16:05:07.520Z,11.07
2023-05-11T16:07:34.737Z,10.30
2023-05-11T16:10:02.139Z,9.98
2023-05-11T16:12:29.296Z,10.10
2023-05-11T16:14:56.922Z,10.88
2023-05-11T16:17:24.467Z,10.07
2023-05-11T16:19:51.789Z,10.77
2023-05-11T16:22:18.831Z,11.00
2023-05-11T16:24:46.408Z,11.25
2023-05-11T16:27:13.544Z,10.60
2023-05-11T16:29:40.579Z,10.90
2023-05-11T16:32:07.803Z,10.93
2023-05-11T16:34:35.267Z,10.80
2023-05-11T16:37:02.482Z,10.75
2023-05-11T16:39:29.537Z,10.90
2023-05-11T16:41:56.780Z,10.25
2023-05-11T16:44:24.681Z,10.18
2023-05-11T16:46:52.759Z,10.77
2023-05-11T16:49:20.151Z,10.68
2023-05-11T16:51:47.426Z,9.98
2023-05-11T16:54:15.073Z,10.25
2023-05-11T16:56:42.373Z,10.38
2023-05-11T16:59:10.761Z,11.20
2023-05-11T17:01:38.039Z,10.77
2023-05-11T17:04:05.392Z,10.10
2023-05-11T17:06:33.058Z,9.45
2023-05-11T17:09:00.177Z,9.40
2023-05-11T17:11:27.370Z,10.23
2023-05-11T17:13:54.434Z,9.10
2023-05-11T17:16:21.796Z,9.90
2023-05-11T17:18:48.951Z,10.00
2023-05-11T17:21:17.277Z,10.48
2023-05-11T17:23:45.191Z,9.82
2023-05-11T17:26:13.300Z,9.50
2023-05-11T17:28:40.596Z,9.73
2023-05-11T17:31:10.369Z,9.55
2023-05-11T17:33:38.169Z,10.30
2023-05-11T17:36:05.947Z,10.38
2023-05-11T17:38:33.303Z,10.15
2023-05-11T17:41:04.702Z,9.85
2023-05-11T17:43:32.685Z,9.60
2023-05-11T17:46:00.568Z,9.32
2023-05-11T17:48:27.707Z,9.07
2023-05-11T17:50:54.852Z,8.27
2023-05-11T17:53:22.085Z,8.05
2023-05-11T17:55:50.384Z,8.43
2023-05-11T17:58:17.574Z,9.27
2023-05-11T18:00:48.717Z,8.90
2023-05-11T18:03:17.034Z,8.98
2023-05-11T18:08:14.556Z,9.43
2023-05-11T18:10:41.998Z,9.63
2023-05-11T18:13:09.139Z,9.65
2023-05-11T18:15:36.435Z,9.95
2023-05-11T18:18:03.699Z,10.02
2023-05-11T18:20:30.956Z,9.35
2023-05-11T18:22:58.238Z,9.05
2023-05-11T18:25:27.976Z,9.15
2023-05-11T18:27:55.237Z,9.98
2023-05-11T18:30:22.452Z,9.40
2023-05-11T18:32:49.653Z,9.25
2023-05-11T18:35:17.164Z,9.57
2023-05-11T18:37:44.586Z,9.43
2023-05-11T18:40:12.565Z,9.57
2023-05-11T18:42:39.754Z,9.32
2023-05-11T18:45:07.555Z,9.48
2023-05-11T18:47:35.668Z,9.10
2023-05-11T18:50:03.765Z,9.75
2023-05-11T18:52:30.832Z,8.68
2023-05-11T18:54:58.575Z,9.60
2023-05-11T18:57:25.619Z,9.63
2023-05-11T18:59:52.919Z,8.18
2023-05-11T19:02:20.075Z,8.93
2023-05-11T19:04:47.360Z,8.57
2023-05-11T19:07:14.479Z,8.60
2023-05-11T19:09:41.783Z,9.45
2023-05-11T19:12:09.175Z,9.02
2023-05-11T19:14:37.462Z,9.75
2023-05-11T19:17:05.360Z,8.57
2023-05-11T19:19:32.824Z,9.18
2023-05-11T19:22:00.384Z,7.70
2023-05-11T19:24:28.470Z,7.72
2023-05-11T19:27:06.489Z,7.50
2023-05-11T19:29:35.532Z,7.93
2023-05-11T19:32:03.542Z,8.15
2023-05-11T19:34:30.743Z,8.48
2023-05-11T19:36:57.903Z,9.45
2023-05-11T19:39:25.023Z,10.10
2023-05-11T19:41:53.057Z,9.52
2023-05-11T19:44:20.325Z,9.52
2023-05-11T19:46:47.895Z,10.15
2023-05-11T19:49:16.534Z,9.15
2023-05-11T19:51:44.228Z,9.40
2023-05-11T19:54:11.683Z,8.70
2023-05-11T19:56:39.441Z,8.63
2023-05-11T19:59:06.638Z,7.45
2023-05-11T20:01:34.172Z,8.10
2023-05-11T20:04:01.791Z,7.60
2023-05-11T20:06:29.248Z,7.72
2023-05-11T20:08:57.154Z,7.45
2023-05-11T20:11:25.444Z,7.95
2023-05-11T20:13:53.967Z,8.23
2023-05-11T20:16:21.664Z,7.82
2023-05-11T20:18:49.121Z,7.65
2023-05-11T20:21:16.861Z,7.40
2023-05-11T20:23:44.247Z,7.38
2023-05-11T20:26:11.732Z,7.45
2023-05-11T20:28:39.787Z,7.68
2023-05-11T20:31:07.336Z,7.90
2023-05-11T20:36:05.375Z,7.80
2023-05-11T20:38:32.847Z,7.93
2023-05-11T20:41:00.321Z,7.30
2023-05-11T20:43:28.018Z,7.90
2023-05-11T20:45:55.697Z,8.02
2023-05-11T20:48:32.365Z,6.70
2023-05-11T20:51:06.556Z,7.30
2023-05-11T20:53:33.803Z,6.72
2023-05-11T20:56:02.814Z,6.20
2023-05-11T20:58:31.647Z,6.38
2023-05-11T21:00:59.159Z,7.28
2023-05-11T21:03:27.831Z,6.78
2023-05-11T21:05:56.305Z,6.57
2023-05-11T21:08:23.706Z,6.80
2023-05-11T21:10:50.753Z,6.10
2023-05-11T21:13:17.950Z,5.65
2023-05-11T21:15:45.022Z,5.95
2023-05-11T21:18:12.432Z,6.00
2023-05-11T21:20:39.569Z,6.10
2023-05-11T21:23:06.786Z,4.85
2023-05-11T21:25:34.044Z,5.32
2023-05-11T21:28:01.251Z,5.57
2023-05-11T21:30:28.551Z,5.22
2023-05-11T21:32:55.858Z,4.85
2023-05-11T21:35:23.051Z,5.07
2023-05-11T21:37:50.332Z,4.75
2023-05-11T21:40:18.278Z,5.15
2023-05-11T21:42:45.698Z,4.55
2023-05-11T21:45:13.309Z,4.80
2023-05-11T21:47:40.506Z,4.43
2023-05-11T21:50:08.780Z,4.68
2023-05-11T21:52:37.083Z,4.13
2023-05-11T21:55:05.014Z,4.78
2023-05-11T21:57:32.298Z,4.90
2023-05-11T21:59:59.511Z,4.70
2023-05-11T22:02:28.248Z,4.50
2023-05-11T22:04:55.483Z,4.53
2023-05-11T22:07:23.453Z,4.35
2023-05-11T22:09:50.870Z,5.00
2023-05-11T22:12:18.227Z,4.60
2023-05-11T22:14:45.849Z,4.50
2023-05-11T22:17:13.113Z,4.22
2023-05-11T22:19:40.224Z,4.38
2023-05-11T22:22:07.413Z,4.50
2023-05-11T22:24:34.599Z,4.35
2023-05-11T22:27:02.125Z,4.18
2023-05-11T22:29:29.444Z,4.05
2023-05-11T22:31:56.702Z,4.30
2023-05-11T22:34:24.440Z,3.90
2023-05-11T22:36:51.645Z,4.25
2023-05-11T22:39:18.877Z,4.15
2023-05-11T22:41:45.871Z,3.72
2023-05-11T22:44:13.137Z,4.13
2023-05-11T22:46:40.175Z,4.05
2023-05-11T22:49:08.446Z,4.20
2023-05-11T22:51:35.680Z,3.95
2023-05-11T22:54:03.548Z,4.10
2023-05-11T22:56:31.378Z,3.38
2023-05-11T22:59:00.210Z,3.78
2023-05-11T23:01:28.573Z,3.67
2023-05-11T23:03:55.775Z,3.67
2023-05-11T23:06:23.521Z,4.13
2023-05-11T23:08:50.837Z,3.90
2023-05-11T23:11:18.084Z,4.10
2023-05-11T23:13:45.852Z,4.13
2023-05-11T23:16:13.115Z,4.07
2023-05-11T23:18:40.368Z,3.90
2023-05-11T23:21:08.439Z,4.15
2023-05-11T23:23:35.508Z,4.15
2023-05-11T23:26:02.708Z,4.05
2023-05-11T23:28:30.036Z,3.85
2023-05-11T23:30:57.196Z,3.75
2023-05-11T23:33:24.395Z,3.63
2023-05-11T23:35:51.723Z,4.07
2023-05-11T23:38:18.826Z,3.40
2023-05-11T23:40:45.928Z,3.90
2023-05-11T23:43:13.119Z,3.53
2023-05-11T23:45:40.383Z,3.53
2023-05-11T23:48:07.742Z,3.72
2023-05-11T23:50:34.874Z,3.97
2023-05-11T23:53:02.065Z,3.72
2023-05-11T23:55:29.184Z,3.60
2023-05-11T23:57:58.745Z,3.58
